sensor_id;sensor_type;location;lat;lon;timestamp;P1;durP1;ratioP1;P2;durP2;ratioP2
68993;SDS011;56054;50.968;5.816;2023-07-29T00:01:43;3.67;;;1.85;;
68993;SDS011;56054;50.968;5.816;2023-07-29T00:04:50;2.55;;;1.77;;
68993;SDS011;56054;50.968;5.816;2023-07-29T00:07:57;6.38;;;1.80;;
68993;SDS011;56054;50.968;5.816;2023-07-29T00:11:04;2.17;;;1.75;;
68993;SDS011;56054;50.968;5.816;2023-07-29T00:14:11;4.60;;;1.85;;
68993;SDS011;56054;50.968;5.816;2023-07-29T00:17:18;3.00;;;1.83;;
68993;SDS011;56054;50.968;5.816;2023-07-29T00:20:25;3.58;;;2.00;;
68993;SDS011;56054;50.968;5.816;2023-07-29T00:23:32;3.47;;;1.88;;
68993;SDS011;56054;50.968;5.816;2023-07-29T00:26:39;7.80;;;2.13;;
68993;SDS011;56054;50.968;5.816;2023-07-29T00:29:46;5.47;;;1.90;;
68993;SDS011;56054;50.968;5.816;2023-07-29T00:32:53;3.88;;;1.80;;
68993;SDS011;56054;50.968;5.816;2023-07-29T00:36:00;2.30;;;1.65;;
68993;SDS011;56054;50.968;5.816;2023-07-29T00:39:07;3.13;;;1.77;;
68993;SDS011;56054;50.968;5.816;2023-07-29T00:42:14;3.17;;;1.88;;
68993;SDS011;56054;50.968;5.816;2023-07-29T00:45:21;5.90;;;1.90;;
68993;SDS011;56054;50.968;5.816;2023-07-29T00:48:31;2.05;;;1.80;;
68993;SDS011;56054;50.968;5.816;2023-07-29T00:51:38;4.30;;;3.00;;
68993;SDS011;56054;50.968;5.816;2023-07-29T00:54:45;7.95;;;2.67;;
68993;SDS011;56054;50.968;5.816;2023-07-29T00:57:54;3.72;;;2.45;;
68993;SDS011;56054;50.968;5.816;2023-07-29T01:01:01;11.20;;;2.50;;
68993;SDS011;56054;50.968;5.816;2023-07-29T01:04:08;2.67;;;2.17;;
68993;SDS011;56054;50.968;5.816;2023-07-29T01:10:50;4.93;;;1.98;;
68993;SDS011;56054;50.968;5.816;2023-07-29T01:17:46;3.08;;;1.88;;
68993;SDS011;56054;50.968;5.816;2023-07-29T01:21:07;3.80;;;2.25;;
68993;SDS011;56054;50.968;5.816;2023-07-29T01:24:15;5.00;;;2.88;;
68993;SDS011;56054;50.968;5.816;2023-07-29T01:27:22;7.97;;;2.83;;
68993;SDS011;56054;50.968;5.816;2023-07-29T01:30:30;9.43;;;2.72;;
68993;SDS011;56054;50.968;5.816;2023-07-29T01:33:48;4.63;;;2.78;;
68993;SDS011;56054;50.968;5.816;2023-07-29T01:37:19;5.03;;;3.03;;
68993;SDS011;56054;50.968;5.816;2023-07-29T01:40:29;3.53;;;3.00;;
68993;SDS011;56054;50.968;5.816;2023-07-29T01:43:37;5.90;;;2.55;;
68993;SDS011;56054;50.968;5.816;2023-07-29T01:46:44;5.25;;;2.47;;
68993;SDS011;56054;50.968;5.816;2023-07-29T01:49:54;4.97;;;2.53;;
68993;SDS011;56054;50.968;5.816;2023-07-29T01:53:01;8.07;;;2.83;;
68993;SDS011;56054;50.968;5.816;2023-07-29T01:56:08;6.95;;;2.05;;
68993;SDS011;56054;50.968;5.816;2023-07-29T01:59:24;6.18;;;1.88;;
68993;SDS011;56054;50.968;5.816;2023-07-29T02:02:31;2.95;;;1.45;;
68993;SDS011;56054;50.968;5.816;2023-07-29T02:05:38;3.17;;;1.10;;
68993;SDS011;56054;50.968;5.816;2023-07-29T02:08:45;2.00;;;1.00;;
68993;SDS011;56054;50.968;5.816;2023-07-29T02:11:52;5.35;;;1.52;;
68993;SDS011;56054;50.968;5.816;2023-07-29T02:14:59;5.47;;;1.30;;
68993;SDS011;56054;50.968;5.816;2023-07-29T02:18:06;3.38;;;0.95;;
68993;SDS011;56054;50.968;5.816;2023-07-29T02:21:13;5.35;;;1.25;;
68993;SDS011;56054;50.968;5.816;2023-07-29T02:24:20;3.70;;;1.38;;
68993;SDS011;56054;50.968;5.816;2023-07-29T02:27:27;2.92;;;1.13;;
68993;SDS011;56054;50.968;5.816;2023-07-29T02:30:34;12.52;;;1.30;;
68993;SDS011;56054;50.968;5.816;2023-07-29T02:33:41;2.95;;;1.60;;
68993;SDS011;56054;50.968;5.816;2023-07-29T02:36:49;3.63;;;1.42;;
68993;SDS011;56054;50.968;5.816;2023-07-29T02:39:56;1.92;;;1.52;;
68993;SDS011;56054;50.968;5.816;2023-07-29T02:43:03;4.78;;;2.17;;
68993;SDS011;56054;50.968;5.816;2023-07-29T02:46:10;3.08;;;1.73;;
68993;SDS011;56054;50.968;5.816;2023-07-29T02:49:17;4.57;;;1.88;;
68993;SDS011;56054;50.968;5.816;2023-07-29T02:52:24;5.38;;;1.50;;
68993;SDS011;56054;50.968;5.816;2023-07-29T02:55:31;4.55;;;1.52;;
68993;SDS011;56054;50.968;5.816;2023-07-29T02:58:38;2.05;;;1.35;;
68993;SDS011;56054;50.968;5.816;2023-07-29T03:01:45;9.90;;;1.88;;
68993;SDS011;56054;50.968;5.816;2023-07-29T03:04:52;7.82;;;1.63;;
68993;SDS011;56054;50.968;5.816;2023-07-29T03:07:59;2.15;;;1.33;;
68993;SDS011;56054;50.968;5.816;2023-07-29T03:11:07;4.68;;;1.60;;
68993;SDS011;56054;50.968;5.816;2023-07-29T03:14:20;4.82;;;1.80;;
68993;SDS011;56054;50.968;5.816;2023-07-29T03:17:27;3.88;;;1.98;;
68993;SDS011;56054;50.968;5.816;2023-07-29T03:20:41;2.28;;;1.60;;
68993;SDS011;56054;50.968;5.816;2023-07-29T03:23:49;3.20;;;1.30;;
68993;SDS011;56054;50.968;5.816;2023-07-29T03:26:56;1.95;;;1.33;;
68993;SDS011;56054;50.968;5.816;2023-07-29T03:30:03;6.00;;;1.90;;
68993;SDS011;56054;50.968;5.816;2023-07-29T03:33:11;2.95;;;1.88;;
68993;SDS011;56054;50.968;5.816;2023-07-29T03:36:18;2.17;;;1.25;;
68993;SDS011;56054;50.968;5.816;2023-07-29T03:39:25;1.88;;;1.48;;
68993;SDS011;56054;50.968;5.816;2023-07-29T03:42:32;5.60;;;1.98;;
68993;SDS011;56054;50.968;5.816;2023-07-29T03:45:39;4.38;;;1.83;;
68993;SDS011;56054;50.968;5.816;2023-07-29T03:48:47;5.57;;;1.70;;
68993;SDS011;56054;50.968;5.816;2023-07-29T03:51:57;4.57;;;1.60;;
68993;SDS011;56054;50.968;5.816;2023-07-29T03:55:09;3.42;;;1.40;;
68993;SDS011;56054;50.968;5.816;2023-07-29T03:58:16;4.65;;;1.65;;
68993;SDS011;56054;50.968;5.816;2023-07-29T04:01:23;4.70;;;1.98;;
68993;SDS011;56054;50.968;5.816;2023-07-29T04:04:30;2.78;;;1.42;;
68993;SDS011;56054;50.968;5.816;2023-07-29T04:07:37;2.88;;;1.80;;
68993;SDS011;56054;50.968;5.816;2023-07-29T04:10:44;4.75;;;1.83;;
68993;SDS011;56054;50.968;5.816;2023-07-29T04:13:51;8.27;;;1.40;;
68993;SDS011;56054;50.968;5.816;2023-07-29T04:16:58;3.92;;;1.58;;
68993;SDS011;56054;50.968;5.816;2023-07-29T04:20:05;4.78;;;1.60;;
68993;SDS011;56054;50.968;5.816;2023-07-29T04:23:12;2.13;;;1.23;;
68993;SDS011;56054;50.968;5.816;2023-07-29T04:26:19;3.03;;;1.30;;
68993;SDS011;56054;50.968;5.816;2023-07-29T04:29:26;2.25;;;1.00;;
68993;SDS011;56054;50.968;5.816;2023-07-29T04:35:57;3.47;;;1.30;;
68993;SDS011;56054;50.968;5.816;2023-07-29T04:39:04;3.80;;;1.40;;
68993;SDS011;56054;50.968;5.816;2023-07-29T04:42:11;5.50;;;1.13;;
68993;SDS011;56054;50.968;5.816;2023-07-29T04:45:18;2.60;;;1.15;;
68993;SDS011;56054;50.968;5.816;2023-07-29T04:48:25;3.63;;;1.25;;
68993;SDS011;56054;50.968;5.816;2023-07-29T04:51:32;6.22;;;1.55;;
68993;SDS011;56054;50.968;5.816;2023-07-29T04:54:39;2.70;;;1.40;;
68993;SDS011;56054;50.968;5.816;2023-07-29T04:57:46;2.65;;;1.55;;
68993;SDS011;56054;50.968;5.816;2023-07-29T05:00:56;5.18;;;1.45;;
68993;SDS011;56054;50.968;5.816;2023-07-29T05:04:03;3.40;;;1.88;;
68993;SDS011;56054;50.968;5.816;2023-07-29T05:07:10;3.80;;;1.50;;
68993;SDS011;56054;50.968;5.816;2023-07-29T05:10:18;3.10;;;1.65;;
68993;SDS011;56054;50.968;5.816;2023-07-29T05:13:25;2.17;;;1.65;;
68993;SDS011;56054;50.968;5.816;2023-07-29T05:16:32;7.75;;;1.92;;
68993;SDS011;56054;50.968;5.816;2023-07-29T05:19:40;2.45;;;1.55;;
68993;SDS011;56054;50.968;5.816;2023-07-29T05:22:47;7.00;;;1.45;;
68993;SDS011;56054;50.968;5.816;2023-07-29T05:25:54;3.08;;;1.45;;
68993;SDS011;56054;50.968;5.816;2023-07-29T05:29:01;3.65;;;1.40;;
68993;SDS011;56054;50.968;5.816;2023-07-29T05:32:08;7.35;;;1.67;;
68993;SDS011;56054;50.968;5.816;2023-07-29T05:35:16;2.78;;;1.70;;
68993;SDS011;56054;50.968;5.816;2023-07-29T05:38:23;6.82;;;1.52;;
68993;SDS011;56054;50.968;5.816;2023-07-29T05:41:30;4.15;;;1.90;;
68993;SDS011;56054;50.968;5.816;2023-07-29T05:44:37;3.55;;;1.40;;
68993;SDS011;56054;50.968;5.816;2023-07-29T05:47:44;8.02;;;1.92;;
68993;SDS011;56054;50.968;5.816;2023-07-29T05:50:53;5.57;;;1.73;;
68993;SDS011;56054;50.968;5.816;2023-07-29T05:54:00;3.83;;;1.65;;
68993;SDS011;56054;50.968;5.816;2023-07-29T05:57:07;6.03;;;1.77;;
68993;SDS011;56054;50.968;5.816;2023-07-29T06:00:15;7.40;;;1.77;;
68993;SDS011;56054;50.968;5.816;2023-07-29T06:03:22;4.68;;;1.75;;
68993;SDS011;56054;50.968;5.816;2023-07-29T06:06:29;5.50;;;1.60;;
68993;SDS011;56054;50.968;5.816;2023-07-29T06:09:36;3.40;;;1.40;;
68993;SDS011;56054;50.968;5.816;2023-07-29T06:12:43;4.35;;;1.50;;
68993;SDS011;56054;50.968;5.816;2023-07-29T06:15:50;5.50;;;1.52;;
68993;SDS011;56054;50.968;5.816;2023-07-29T06:18:57;5.38;;;1.33;;
68993;SDS011;56054;50.968;5.816;2023-07-29T06:22:05;4.38;;;1.55;;
68993;SDS011;56054;50.968;5.816;2023-07-29T06:25:12;2.72;;;1.42;;
68993;SDS011;56054;50.968;5.816;2023-07-29T06:28:19;4.72;;;1.27;;
68993;SDS011;56054;50.968;5.816;2023-07-29T06:31:26;3.78;;;1.30;;
68993;SDS011;56054;50.968;5.816;2023-07-29T06:34:33;3.95;;;0.98;;
68993;SDS011;56054;50.968;5.816;2023-07-29T06:37:40;3.67;;;1.10;;
68993;SDS011;56054;50.968;5.816;2023-07-29T06:40:47;2.47;;;1.30;;
68993;SDS011;56054;50.968;5.816;2023-07-29T06:43:55;3.70;;;1.65;;
68993;SDS011;56054;50.968;5.816;2023-07-29T06:47:02;3.20;;;1.25;;
68993;SDS011;56054;50.968;5.816;2023-07-29T06:50:09;1.90;;;1.30;;
68993;SDS011;56054;50.968;5.816;2023-07-29T06:53:16;8.07;;;1.20;;
68993;SDS011;56054;50.968;5.816;2023-07-29T06:56:23;2.33;;;1.42;;
68993;SDS011;56054;50.968;5.816;2023-07-29T06:59:30;3.85;;;1.00;;
68993;SDS011;56054;50.968;5.816;2023-07-29T07:02:37;3.53;;;1.10;;
68993;SDS011;56054;50.968;5.816;2023-07-29T07:05:45;3.30;;;0.90;;
68993;SDS011;56054;50.968;5.816;2023-07-29T07:08:52;2.30;;;0.70;;
68993;SDS011;56054;50.968;5.816;2023-07-29T07:11:59;1.55;;;0.82;;
68993;SDS011;56054;50.968;5.816;2023-07-29T07:15:06;13.55;;;1.20;;
68993;SDS011;56054;50.968;5.816;2023-07-29T07:18:14;5.60;;;0.85;;
68993;SDS011;56054;50.968;5.816;2023-07-29T07:21:21;2.85;;;1.20;;
68993;SDS011;56054;50.968;5.816;2023-07-29T07:24:28;2.22;;;1.10;;
68993;SDS011;56054;50.968;5.816;2023-07-29T07:27:36;1.23;;;0.75;;
68993;SDS011;56054;50.968;5.816;2023-07-29T07:30:43;1.20;;;0.73;;
68993;SDS011;56054;50.968;5.816;2023-07-29T07:33:50;1.27;;;0.88;;
68993;SDS011;56054;50.968;5.816;2023-07-29T07:36:57;1.10;;;0.80;;
68993;SDS011;56054;50.968;5.816;2023-07-29T07:40:04;1.65;;;0.95;;
68993;SDS011;56054;50.968;5.816;2023-07-29T07:43:11;4.88;;;0.90;;
68993;SDS011;56054;50.968;5.816;2023-07-29T07:46:18;6.13;;;1.02;;
68993;SDS011;56054;50.968;5.816;2023-07-29T07:49:25;2.97;;;1.00;;
68993;SDS011;56054;50.968;5.816;2023-07-29T07:52:32;3.17;;;0.93;;
68993;SDS011;56054;50.968;5.816;2023-07-29T07:55:39;4.30;;;0.88;;
68993;SDS011;56054;50.968;5.816;2023-07-29T07:58:46;2.88;;;1.00;;
68993;SDS011;56054;50.968;5.816;2023-07-29T08:01:53;2.85;;;1.20;;
68993;SDS011;56054;50.968;5.816;2023-07-29T08:05:00;3.10;;;1.50;;
68993;SDS011;56054;50.968;5.816;2023-07-29T08:08:07;2.88;;;1.00;;
68993;SDS011;56054;50.968;5.816;2023-07-29T08:11:14;1.90;;;0.95;;
68993;SDS011;56054;50.968;5.816;2023-07-29T08:14:21;1.67;;;1.25;;
68993;SDS011;56054;50.968;5.816;2023-07-29T08:17:28;4.47;;;1.40;;
68993;SDS011;56054;50.968;5.816;2023-07-29T08:20:35;1.90;;;0.90;;
68993;SDS011;56054;50.968;5.816;2023-07-29T08:23:42;1.98;;;1.00;;
68993;SDS011;56054;50.968;5.816;2023-07-29T08:26:49;2.65;;;0.90;;
68993;SDS011;56054;50.968;5.816;2023-07-29T08:29:56;1.48;;;0.77;;
68993;SDS011;56054;50.968;5.816;2023-07-29T08:33:03;4.75;;;0.90;;
68993;SDS011;56054;50.968;5.816;2023-07-29T08:36:10;3.63;;;1.13;;
68993;SDS011;56054;50.968;5.816;2023-07-29T08:39:17;5.68;;;1.00;;
68993;SDS011;56054;50.968;5.816;2023-07-29T08:42:25;1.65;;;0.98;;
68993;SDS011;56054;50.968;5.816;2023-07-29T08:45:37;2.00;;;0.95;;
68993;SDS011;56054;50.968;5.816;2023-07-29T08:48:46;2.35;;;0.82;;
68993;SDS011;56054;50.968;5.816;2023-07-29T08:51:53;3.38;;;0.90;;
68993;SDS011;56054;50.968;5.816;2023-07-29T08:55:00;2.17;;;1.10;;
68993;SDS011;56054;50.968;5.816;2023-07-29T08:58:07;1.65;;;1.00;;
68993;SDS011;56054;50.968;5.816;2023-07-29T09:01:14;6.35;;;0.95;;
68993;SDS011;56054;50.968;5.816;2023-07-29T09:04:22;5.30;;;1.00;;
68993;SDS011;56054;50.968;5.816;2023-07-29T09:07:29;2.53;;;0.90;;
68993;SDS011;56054;50.968;5.816;2023-07-29T09:10:43;2.22;;;0.80;;
68993;SDS011;56054;50.968;5.816;2023-07-29T09:13:50;1.80;;;1.08;;
68993;SDS011;56054;50.968;5.816;2023-07-29T09:16:57;2.38;;;0.80;;
68993;SDS011;56054;50.968;5.816;2023-07-29T09:20:04;2.45;;;0.82;;
68993;SDS011;56054;50.968;5.816;2023-07-29T09:23:12;2.55;;;1.05;;
68993;SDS011;56054;50.968;5.816;2023-07-29T09:26:22;0.88;;;0.70;;
68993;SDS011;56054;50.968;5.816;2023-07-29T09:29:30;2.00;;;0.80;;
68993;SDS011;56054;50.968;5.816;2023-07-29T09:32:37;1.67;;;0.80;;
68993;SDS011;56054;50.968;5.816;2023-07-29T09:35:45;2.90;;;0.85;;
68993;SDS011;56054;50.968;5.816;2023-07-29T09:38:55;1.77;;;0.77;;
68993;SDS011;56054;50.968;5.816;2023-07-29T09:42:02;4.15;;;1.10;;
68993;SDS011;56054;50.968;5.816;2023-07-29T09:45:09;1.65;;;0.90;;
68993;SDS011;56054;50.968;5.816;2023-07-29T09:48:16;1.67;;;0.80;;
68993;SDS011;56054;50.968;5.816;2023-07-29T09:51:29;3.17;;;1.00;;
68993;SDS011;56054;50.968;5.816;2023-07-29T09:54:37;6.22;;;1.42;;
68993;SDS011;56054;50.968;5.816;2023-07-29T09:57:45;3.50;;;1.10;;
68993;SDS011;56054;50.968;5.816;2023-07-29T10:00:52;1.33;;;1.05;;
68993;SDS011;56054;50.968;5.816;2023-07-29T10:03:59;3.97;;;1.00;;
68993;SDS011;56054;50.968;5.816;2023-07-29T10:07:06;2.63;;;1.23;;
68993;SDS011;56054;50.968;5.816;2023-07-29T10:10:14;2.25;;;1.00;;
68993;SDS011;56054;50.968;5.816;2023-07-29T10:13:22;2.63;;;1.00;;
68993;SDS011;56054;50.968;5.816;2023-07-29T10:16:32;2.45;;;0.90;;
68993;SDS011;56054;50.968;5.816;2023-07-29T10:19:40;2.33;;;1.10;;
68993;SDS011;56054;50.968;5.816;2023-07-29T10:22:48;3.00;;;1.05;;
68993;SDS011;56054;50.968;5.816;2023-07-29T10:25:57;6.60;;;1.00;;
68993;SDS011;56054;50.968;5.816;2023-07-29T10:29:09;3.35;;;1.25;;
68993;SDS011;56054;50.968;5.816;2023-07-29T10:32:18;3.10;;;0.98;;
68993;SDS011;56054;50.968;5.816;2023-07-29T10:35:34;1.08;;;0.90;;
68993;SDS011;56054;50.968;5.816;2023-07-29T10:38:41;3.40;;;0.85;;
68993;SDS011;56054;50.968;5.816;2023-07-29T10:45:18;1.85;;;1.10;;
68993;SDS011;56054;50.968;5.816;2023-07-29T10:51:40;1.70;;;0.90;;
68993;SDS011;56054;50.968;5.816;2023-07-29T10:54:48;3.08;;;1.30;;
68993;SDS011;56054;50.968;5.816;2023-07-29T10:58:05;6.40;;;0.95;;
68993;SDS011;56054;50.968;5.816;2023-07-29T11:01:28;2.55;;;1.20;;
68993;SDS011;56054;50.968;5.816;2023-07-29T11:04:48;1.65;;;0.85;;
68993;SDS011;56054;50.968;5.816;2023-07-29T11:07:57;1.40;;;1.15;;
68993;SDS011;56054;50.968;5.816;2023-07-29T11:11:07;2.53;;;1.15;;
68993;SDS011;56054;50.968;5.816;2023-07-29T11:14:18;1.55;;;1.08;;
68993;SDS011;56054;50.968;5.816;2023-07-29T11:17:25;2.70;;;1.30;;
68993;SDS011;56054;50.968;5.816;2023-07-29T11:20:33;1.88;;;0.95;;
68993;SDS011;56054;50.968;5.816;2023-07-29T11:23:40;1.58;;;1.13;;
68993;SDS011;56054;50.968;5.816;2023-07-29T11:26:47;3.65;;;1.88;;
68993;SDS011;56054;50.968;5.816;2023-07-29T11:29:57;2.20;;;1.20;;
68993;SDS011;56054;50.968;5.816;2023-07-29T11:33:05;1.20;;;1.02;;
68993;SDS011;56054;50.968;5.816;2023-07-29T11:36:18;1.50;;;1.00;;
68993;SDS011;56054;50.968;5.816;2023-07-29T11:39:25;3.03;;;1.10;;
68993;SDS011;56054;50.968;5.816;2023-07-29T11:42:32;1.73;;;1.10;;
68993;SDS011;56054;50.968;5.816;2023-07-29T11:45:40;3.08;;;0.95;;
68993;SDS011;56054;50.968;5.816;2023-07-29T11:48:47;1.40;;;0.85;;
68993;SDS011;56054;50.968;5.816;2023-07-29T11:51:54;3.10;;;0.98;;
68993;SDS011;56054;50.968;5.816;2023-07-29T11:55:02;3.15;;;1.15;;
68993;SDS011;56054;50.968;5.816;2023-07-29T11:58:10;2.47;;;1.02;;
68993;SDS011;56054;50.968;5.816;2023-07-29T12:01:17;3.35;;;1.33;;
68993;SDS011;56054;50.968;5.816;2023-07-29T12:04:31;1.83;;;1.02;;
68993;SDS011;56054;50.968;5.816;2023-07-29T12:07:39;1.70;;;1.10;;
68993;SDS011;56054;50.968;5.816;2023-07-29T12:10:47;4.05;;;1.23;;
68993;SDS011;56054;50.968;5.816;2023-07-29T12:13:54;6.78;;;1.60;;
68993;SDS011;56054;50.968;5.816;2023-07-29T12:17:02;2.55;;;1.23;;
68993;SDS011;56054;50.968;5.816;2023-07-29T12:20:10;3.08;;;1.60;;
68993;SDS011;56054;50.968;5.816;2023-07-29T12:23:18;3.42;;;1.48;;
68993;SDS011;56054;50.968;5.816;2023-07-29T12:26:31;7.55;;;1.45;;
68993;SDS011;56054;50.968;5.816;2023-07-29T12:29:41;3.08;;;1.55;;
68993;SDS011;56054;50.968;5.816;2023-07-29T12:32:49;4.38;;;1.80;;
68993;SDS011;56054;50.968;5.816;2023-07-29T12:35:56;3.78;;;1.77;;
68993;SDS011;56054;50.968;5.816;2023-07-29T12:39:03;3.78;;;1.85;;
68993;SDS011;56054;50.968;5.816;2023-07-29T12:42:10;8.60;;;1.92;;
68993;SDS011;56054;50.968;5.816;2023-07-29T12:45:17;2.58;;;1.70;;
68993;SDS011;56054;50.968;5.816;2023-07-29T12:48:24;12.02;;;2.10;;
68993;SDS011;56054;50.968;5.816;2023-07-29T12:51:31;6.05;;;1.85;;
68993;SDS011;56054;50.968;5.816;2023-07-29T12:54:38;5.07;;;1.55;;
68993;SDS011;56054;50.968;5.816;2023-07-29T12:57:45;2.55;;;1.10;;
68993;SDS011;56054;50.968;5.816;2023-07-29T13:00:52;1.73;;;0.90;;
68993;SDS011;56054;50.968;5.816;2023-07-29T13:03:59;4.72;;;0.80;;
68993;SDS011;56054;50.968;5.816;2023-07-29T13:07:06;1.08;;;0.47;;
68993;SDS011;56054;50.968;5.816;2023-07-29T13:10:13;1.70;;;0.82;;
68993;SDS011;56054;50.968;5.816;2023-07-29T13:13:20;3.70;;;0.90;;
68993;SDS011;56054;50.968;5.816;2023-07-29T13:16:28;2.03;;;0.60;;
68993;SDS011;56054;50.968;5.816;2023-07-29T13:19:35;1.25;;;0.98;;
68993;SDS011;56054;50.968;5.816;2023-07-29T13:22:42;1.83;;;0.93;;
68993;SDS011;56054;50.968;5.816;2023-07-29T13:25:50;2.15;;;1.40;;
68993;SDS011;56054;50.968;5.816;2023-07-29T13:28:57;1.27;;;0.95;;
68993;SDS011;56054;50.968;5.816;2023-07-29T13:32:04;3.10;;;1.10;;
68993;SDS011;56054;50.968;5.816;2023-07-29T13:35:11;2.22;;;1.20;;
68993;SDS011;56054;50.968;5.816;2023-07-29T13:38:18;1.88;;;1.25;;
68993;SDS011;56054;50.968;5.816;2023-07-29T13:41:25;2.45;;;1.15;;
68993;SDS011;56054;50.968;5.816;2023-07-29T13:44:32;2.10;;;1.20;;
68993;SDS011;56054;50.968;5.816;2023-07-29T13:47:39;2.15;;;1.08;;
68993;SDS011;56054;50.968;5.816;2023-07-29T13:50:46;5.10;;;1.33;;
68993;SDS011;56054;50.968;5.816;2023-07-29T13:53:53;1.83;;;1.08;;
68993;SDS011;56054;50.968;5.816;2023-07-29T13:57:00;2.08;;;1.30;;
68993;SDS011;56054;50.968;5.816;2023-07-29T14:00:07;2.85;;;1.10;;
68993;SDS011;56054;50.968;5.816;2023-07-29T14:03:14;1.88;;;1.30;;
68993;SDS011;56054;50.968;5.816;2023-07-29T14:06:21;1.88;;;1.25;;
68993;SDS011;56054;50.968;5.816;2023-07-29T14:09:28;3.03;;;1.40;;
68993;SDS011;56054;50.968;5.816;2023-07-29T14:12:35;3.22;;;1.63;;
68993;SDS011;56054;50.968;5.816;2023-07-29T14:15:42;2.63;;;1.40;;
68993;SDS011;56054;50.968;5.816;2023-07-29T14:18:49;2.55;;;1.30;;
68993;SDS011;56054;50.968;5.816;2023-07-29T14:21:56;1.92;;;1.27;;
68993;SDS011;56054;50.968;5.816;2023-07-29T14:25:03;5.32;;;1.33;;
68993;SDS011;56054;50.968;5.816;2023-07-29T14:28:12;3.88;;;1.40;;
68993;SDS011;56054;50.968;5.816;2023-07-29T14:31:20;3.42;;;1.65;;
68993;SDS011;56054;50.968;5.816;2023-07-29T14:34:27;5.55;;;1.70;;
68993;SDS011;56054;50.968;5.816;2023-07-29T14:37:34;4.30;;;1.50;;
68993;SDS011;56054;50.968;5.816;2023-07-29T14:40:41;5.40;;;2.00;;
68993;SDS011;56054;50.968;5.816;2023-07-29T14:43:48;2.58;;;1.83;;
68993;SDS011;56054;50.968;5.816;2023-07-29T14:46:55;5.13;;;1.63;;
68993;SDS011;56054;50.968;5.816;2023-07-29T14:50:02;4.22;;;1.40;;
68993;SDS011;56054;50.968;5.816;2023-07-29T14:53:10;1.67;;;1.33;;
68993;SDS011;56054;50.968;5.816;2023-07-29T14:56:17;3.78;;;1.50;;
68993;SDS011;56054;50.968;5.816;2023-07-29T14:59:24;7.05;;;1.75;;
68993;SDS011;56054;50.968;5.816;2023-07-29T15:02:31;4.07;;;2.17;;
68993;SDS011;56054;50.968;5.816;2023-07-29T15:05:38;4.65;;;1.90;;
68993;SDS011;56054;50.968;5.816;2023-07-29T15:08:45;4.78;;;1.80;;
68993;SDS011;56054;50.968;5.816;2023-07-29T15:11:59;3.15;;;1.50;;
68993;SDS011;56054;50.968;5.816;2023-07-29T15:15:06;2.85;;;1.65;;
68993;SDS011;56054;50.968;5.816;2023-07-29T15:18:14;1.63;;;1.50;;
68993;SDS011;56054;50.968;5.816;2023-07-29T15:21:28;2.25;;;1.67;;
68993;SDS011;56054;50.968;5.816;2023-07-29T15:24:36;3.10;;;1.45;;
68993;SDS011;56054;50.968;5.816;2023-07-29T15:27:42;2.55;;;1.30;;
68993;SDS011;56054;50.968;5.816;2023-07-29T15:30:49;5.57;;;3.30;;
68993;SDS011;56054;50.968;5.816;2023-07-29T15:33:58;1.75;;;1.20;;
68993;SDS011;56054;50.968;5.816;2023-07-29T15:37:05;2.70;;;1.80;;
68993;SDS011;56054;50.968;5.816;2023-07-29T15:40:12;2.92;;;1.40;;
68993;SDS011;56054;50.968;5.816;2023-07-29T15:43:19;2.10;;;1.25;;
68993;SDS011;56054;50.968;5.816;2023-07-29T15:46:26;3.53;;;1.25;;
68993;SDS011;56054;50.968;5.816;2023-07-29T15:49:33;5.90;;;1.42;;
68993;SDS011;56054;50.968;5.816;2023-07-29T15:52:40;1.58;;;1.10;;
68993;SDS011;56054;50.968;5.816;2023-07-29T15:55:47;2.50;;;1.35;;
68993;SDS011;56054;50.968;5.816;2023-07-29T15:58:54;3.15;;;0.95;;
68993;SDS011;56054;50.968;5.816;2023-07-29T16:02:02;6.15;;;1.30;;
68993;SDS011;56054;50.968;5.816;2023-07-29T16:05:09;3.45;;;1.38;;
68993;SDS011;56054;50.968;5.816;2023-07-29T16:08:16;3.75;;;1.40;;
68993;SDS011;56054;50.968;5.816;2023-07-29T16:11:23;1.88;;;1.13;;
68993;SDS011;56054;50.968;5.816;2023-07-29T16:14:30;3.85;;;0.95;;
68993;SDS011;56054;50.968;5.816;2023-07-29T16:17:37;2.75;;;1.00;;
68993;SDS011;56054;50.968;5.816;2023-07-29T16:20:44;3.83;;;1.88;;
68993;SDS011;56054;50.968;5.816;2023-07-29T16:23:51;2.65;;;1.08;;
68993;SDS011;56054;50.968;5.816;2023-07-29T16:26:59;3.63;;;1.10;;
68993;SDS011;56054;50.968;5.816;2023-07-29T16:30:07;7.95;;;1.63;;
68993;SDS011;56054;50.968;5.816;2023-07-29T16:33:14;4.18;;;1.17;;
68993;SDS011;56054;50.968;5.816;2023-07-29T16:36:21;2.25;;;1.00;;
68993;SDS011;56054;50.968;5.816;2023-07-29T16:39:28;1.67;;;1.08;;
68993;SDS011;56054;50.968;5.816;2023-07-29T16:42:35;1.75;;;0.90;;
68993;SDS011;56054;50.968;5.816;2023-07-29T16:45:42;3.00;;;1.23;;
68993;SDS011;56054;50.968;5.816;2023-07-29T16:48:49;4.85;;;1.20;;
68993;SDS011;56054;50.968;5.816;2023-07-29T16:51:56;1.33;;;0.82;;
68993;SDS011;56054;50.968;5.816;2023-07-29T16:55:04;1.92;;;1.15;;
68993;SDS011;56054;50.968;5.816;2023-07-29T16:58:11;2.63;;;1.13;;
68993;SDS011;56054;50.968;5.816;2023-07-29T17:01:18;10.27;;;1.33;;
68993;SDS011;56054;50.968;5.816;2023-07-29T17:04:25;2.80;;;0.90;;
68993;SDS011;56054;50.968;5.816;2023-07-29T17:07:32;1.92;;;1.20;;
68993;SDS011;56054;50.968;5.816;2023-07-29T17:10:39;1.17;;;0.93;;
68993;SDS011;56054;50.968;5.816;2023-07-29T17:13:46;3.00;;;1.10;;
68993;SDS011;56054;50.968;5.816;2023-07-29T17:16:53;1.75;;;0.90;;
68993;SDS011;56054;50.968;5.816;2023-07-29T17:20:00;2.78;;;1.08;;
68993;SDS011;56054;50.968;5.816;2023-07-29T17:23:07;1.67;;;1.02;;
68993;SDS011;56054;50.968;5.816;2023-07-29T17:26:14;3.35;;;1.05;;
68993;SDS011;56054;50.968;5.816;2023-07-29T17:29:21;2.17;;;1.10;;
68993;SDS011;56054;50.968;5.816;2023-07-29T17:32:28;1.63;;;1.40;;
68993;SDS011;56054;50.968;5.816;2023-07-29T17:35:35;1.25;;;0.90;;
68993;SDS011;56054;50.968;5.816;2023-07-29T17:38:42;1.95;;;0.90;;
68993;SDS011;56054;50.968;5.816;2023-07-29T17:41:49;1.73;;;0.93;;
68993;SDS011;56054;50.968;5.816;2023-07-29T17:44:56;1.85;;;0.90;;
68993;SDS011;56054;50.968;5.816;2023-07-29T17:48:03;1.13;;;0.80;;
68993;SDS011;56054;50.968;5.816;2023-07-29T17:51:10;3.85;;;0.93;;
68993;SDS011;56054;50.968;5.816;2023-07-29T17:54:17;1.52;;;0.90;;
68993;SDS011;56054;50.968;5.816;2023-07-29T17:57:24;1.42;;;0.90;;
68993;SDS011;56054;50.968;5.816;2023-07-29T18:00:32;1.45;;;0.90;;
68993;SDS011;56054;50.968;5.816;2023-07-29T18:03:39;1.63;;;0.95;;
68993;SDS011;56054;50.968;5.816;2023-07-29T18:06:46;1.05;;;0.85;;
68993;SDS011;56054;50.968;5.816;2023-07-29T18:09:53;1.50;;;0.80;;
68993;SDS011;56054;50.968;5.816;2023-07-29T18:13:00;1.20;;;0.85;;
68993;SDS011;56054;50.968;5.816;2023-07-29T18:16:07;2.15;;;1.00;;
68993;SDS011;56054;50.968;5.816;2023-07-29T18:19:14;6.90;;;1.00;;
68993;SDS011;56054;50.968;5.816;2023-07-29T18:22:21;2.20;;;0.88;;
68993;SDS011;56054;50.968;5.816;2023-07-29T18:25:28;2.17;;;0.90;;
68993;SDS011;56054;50.968;5.816;2023-07-29T18:28:35;2.03;;;0.70;;
68993;SDS011;56054;50.968;5.816;2023-07-29T18:31:42;2.47;;;0.80;;
68993;SDS011;56054;50.968;5.816;2023-07-29T18:34:49;1.77;;;0.90;;
68993;SDS011;56054;50.968;5.816;2023-07-29T18:37:56;5.53;;;1.20;;
68993;SDS011;56054;50.968;5.816;2023-07-29T18:41:03;0.77;;;0.77;;
68993;SDS011;56054;50.968;5.816;2023-07-29T18:44:10;3.50;;;1.08;;
68993;SDS011;56054;50.968;5.816;2023-07-29T18:47:17;1.13;;;0.80;;
68993;SDS011;56054;50.968;5.816;2023-07-29T18:50:24;1.10;;;0.73;;
68993;SDS011;56054;50.968;5.816;2023-07-29T18:53:31;1.52;;;1.00;;
68993;SDS011;56054;50.968;5.816;2023-07-29T18:56:38;2.03;;;0.90;;
68993;SDS011;56054;50.968;5.816;2023-07-29T18:59:45;1.00;;;0.70;;
68993;SDS011;56054;50.968;5.816;2023-07-29T19:02:52;1.35;;;0.77;;
68993;SDS011;56054;50.968;5.816;2023-07-29T19:05:59;2.47;;;0.90;;
68993;SDS011;56054;50.968;5.816;2023-07-29T19:09:06;1.70;;;0.70;;